createdAt,value
2022-10-05T00:00:23.076Z,15.20
2022-10-05T00:02:53.523Z,15.20
2022-10-05T00:05:30.340Z,15.20
2022-10-05T00:08:03.053Z,15.20
2022-10-05T00:10:31.399Z,15.20
2022-10-05T00:13:00.864Z,15.20
2022-10-05T00:15:31.521Z,15.20
2022-10-05T00:18:02.066Z,15.30
2022-10-05T00:20:30.204Z,15.20
2022-10-05T00:23:01.911Z,15.30
2022-10-05T00:25:30.236Z,15.20
2022-10-05T00:28:01.844Z,15.10
2022-10-05T00:30:38.177Z,15.20
2022-10-05T00:33:06.300Z,15.20
2022-10-05T00:35:45.948Z,15.20
2022-10-05T00:38:16.951Z,15.10
2022-10-05T00:41:01.092Z,15.10
2022-10-05T00:43:55.525Z,15.00
2022-10-05T00:46:31.803Z,15.00
2022-10-05T00:49:08.635Z,15.00
2022-10-05T00:56:29.438Z,15.10
2022-10-05T00:59:10.443Z,15.10
2022-10-05T01:01:45.383Z,15.10
2022-10-05T01:04:17.881Z,15.10
2022-10-05T01:06:56.371Z,15.10
2022-10-05T01:09:34.634Z,15.00
2022-10-05T01:12:10.296Z,15.10
2022-10-05T01:14:48.796Z,15.10
2022-10-05T01:17:20.951Z,15.00
2022-10-05T01:20:07.815Z,15.00
2022-10-05T01:22:52.796Z,15.00
2022-10-05T01:25:27.505Z,14.90
2022-10-05T01:28:03.537Z,14.90
2022-10-05T01:30:40.070Z,14.90
2022-10-05T01:33:18.730Z,14.80
2022-10-05T01:35:56.364Z,14.90
2022-10-05T01:38:39.245Z,14.90
2022-10-05T01:41:15.927Z,14.90
2022-10-05T01:43:50.345Z,14.80
2022-10-05T01:46:26.254Z,14.80
2022-10-05T01:49:15.523Z,14.80
2022-10-05T01:51:53.564Z,14.70
2022-10-05T01:54:35.695Z,14.70
2022-10-05T01:57:17.062Z,14.70
2022-10-05T02:00:01.979Z,14.70
2022-10-05T02:02:32.720Z,14.70
2022-10-05T02:05:08.858Z,14.70
2022-10-05T02:07:43.285Z,14.60
2022-10-05T02:10:20.445Z,14.60
2022-10-05T02:12:52.525Z,14.60
2022-10-05T02:15:26.973Z,14.60
2022-10-05T02:18:00.430Z,14.50
2022-10-05T02:20:32.638Z,14.40
2022-10-05T02:23:05.511Z,14.40
2022-10-05T02:25:37.530Z,14.40
2022-10-05T02:28:10.376Z,14.30
2022-10-05T02:30:45.922Z,14.30
2022-10-05T02:33:23.008Z,14.30
2022-10-05T02:35:51.143Z,14.30
2022-10-05T02:38:29.026Z,14.30
2022-10-05T02:41:07.750Z,14.30
2022-10-05T02:43:46.101Z,14.30
2022-10-05T02:46:25.522Z,14.40
2022-10-05T02:49:05.838Z,14.40
2022-10-05T02:51:44.798Z,14.30
2022-10-05T02:54:21.946Z,14.30
2022-10-05T02:57:00.128Z,14.20
2022-10-05T02:59:35.213Z,14.30
2022-10-05T03:07:42.610Z,14.20
2022-10-05T03:10:18.926Z,14.20
2022-10-05T03:12:55.199Z,14.20
2022-10-05T03:15:48.980Z,14.20
2022-10-05T03:18:30.634Z,14.20
2022-10-05T03:21:07.760Z,14.10
2022-10-05T03:23:46.038Z,14.20
2022-10-05T03:26:33.179Z,14.30
2022-10-05T03:29:09.530Z,14.30
2022-10-05T03:31:43.209Z,14.40
2022-10-05T03:34:19.851Z,14.40
2022-10-05T03:36:54.871Z,14.40
2022-10-05T03:39:31.882Z,14.40
2022-10-05T03:42:09.465Z,14.40
2022-10-05T03:44:45.611Z,14.40
2022-10-05T03:47:20.220Z,14.40
2022-10-05T03:50:24.304Z,14.40
2022-10-05T03:52:57.577Z,14.40
2022-10-05T03:59:14.547Z,14.40
2022-10-05T04:01:48.885Z,14.50
2022-10-05T04:04:25.133Z,14.60
2022-10-05T04:06:57.277Z,14.60
2022-10-05T04:09:29.194Z,14.60
2022-10-05T04:12:03.585Z,14.60
2022-10-05T04:14:39.804Z,14.60
2022-10-05T04:17:11.678Z,14.50
2022-10-05T04:19:45.167Z,14.60
2022-10-05T04:22:23.126Z,14.60
2022-10-05T04:24:59.884Z,14.60
2022-10-05T04:27:32.478Z,14.60
2022-10-05T04:30:08.202Z,14.50
2022-10-05T04:32:38.947Z,14.50
2022-10-05T04:35:38.274Z,14.60
2022-10-05T04:38:24.539Z,14.60
2022-10-05T04:41:06.151Z,14.60
2022-10-05T04:43:43.833Z,14.60
2022-10-05T04:46:24.903Z,14.60
2022-10-05T04:49:23.573Z,14.60
2022-10-05T04:52:03.245Z,14.60
2022-10-05T04:54:43.449Z,14.70
2022-10-05T04:57:17.703Z,14.70
2022-10-05T05:00:10.877Z,14.70
2022-10-05T05:03:15.683Z,14.70
2022-10-05T05:06:15.772Z,14.70
2022-10-05T05:08:58.112Z,14.60
2022-10-05T05:11:35.916Z,14.70
2022-10-05T05:14:35.187Z,14.60
2022-10-05T05:17:18.004Z,14.50
2022-10-05T05:19:59.404Z,14.60
2022-10-05T05:22:37.756Z,14.50
2022-10-05T05:25:21.359Z,14.50
2022-10-05T05:27:54.873Z,14.50
2022-10-05T05:30:25.988Z,14.50
2022-10-05T05:33:09.586Z,14.50
2022-10-05T05:35:57.943Z,14.50
2022-10-05T05:38:34.056Z,14.50
2022-10-05T05:41:10.400Z,14.50
2022-10-05T05:44:02.800Z,14.50
2022-10-05T05:47:01.912Z,14.50
2022-10-05T05:49:45.305Z,14.50
2022-10-05T05:52:20.217Z,14.50
2022-10-05T05:54:53.410Z,14.40
2022-10-05T05:57:28.423Z,14.40
2022-10-05T06:00:06.620Z,14.40
2022-10-05T06:02:42.354Z,14.40
2022-10-05T06:05:27.512Z,14.40
2022-10-05T06:07:59.775Z,14.50
2022-10-05T06:10:35.863Z,14.50
2022-10-05T06:13:09.456Z,14.50
2022-10-05T06:15:42.382Z,14.50
2022-10-05T06:18:13.252Z,14.50
2022-10-05T06:20:43.783Z,14.50
2022-10-05T06:23:18.084Z,14.50
2022-10-05T06:25:58.068Z,14.40
2022-10-05T06:28:28.000Z,14.40
2022-10-05T06:31:04.909Z,14.50
2022-10-05T06:33:46.967Z,14.40
2022-10-05T06:36:26.239Z,14.40
2022-10-05T06:39:24.183Z,14.40
2022-10-05T06:42:09.461Z,14.40
2022-10-05T06:44:45.423Z,14.40
2022-10-05T06:47:24.014Z,14.40
2022-10-05T06:50:04.935Z,14.40
2022-10-05T06:52:41.500Z,14.50
2022-10-05T06:55:19.197Z,14.50
2022-10-05T06:57:59.957Z,14.50
2022-10-05T07:00:35.426Z,14.50
2022-10-05T07:03:16.404Z,14.50
2022-10-05T07:06:00.435Z,14.60
2022-10-05T07:08:43.005Z,14.60
2022-10-05T07:11:26.539Z,14.70
2022-10-05T07:14:16.040Z,14.70
2022-10-05T07:16:55.802Z,14.80
2022-10-05T07:19:33.122Z,14.80
2022-10-05T07:22:24.409Z,14.90
2022-10-05T07:25:00.367Z,15.00
2022-10-05T07:27:33.898Z,15.00
2022-10-05T07:30:06.058Z,15.10
2022-10-05T07:32:40.206Z,15.10
2022-10-05T07:35:32.996Z,15.10
2022-10-05T07:38:08.714Z,15.10
2022-10-05T07:40:41.435Z,15.10
2022-10-05T07:43:23.046Z,15.10
2022-10-05T07:45:58.462Z,15.10
2022-10-05T07:48:33.238Z,15.10
2022-10-05T07:51:07.617Z,15.10
2022-10-05T07:53:39.385Z,15.20
2022-10-05T07:56:15.018Z,15.30
2022-10-05T07:58:47.878Z,15.30
2022-10-05T08:01:23.397Z,15.40
2022-10-05T08:03:56.359Z,15.70
2022-10-05T08:06:48.347Z,15.80
2022-10-05T08:09:34.189Z,15.90
2022-10-05T08:12:28.698Z,16.10
2022-10-05T08:14:59.121Z,16.20
2022-10-05T08:17:54.703Z,16.30
2022-10-05T08:20:36.519Z,16.30
2022-10-05T08:23:17.076Z,16.40
2022-10-05T08:25:58.365Z,16.50
2022-10-05T08:28:31.149Z,16.50
2022-10-05T08:31:09.776Z,16.50
2022-10-05T08:33:48.672Z,16.60
2022-10-05T08:36:21.477Z,16.70
2022-10-05T08:38:54.673Z,16.80
2022-10-05T08:42:06.149Z,17.00
2022-10-05T08:45:02.725Z,17.10
2022-10-05T08:48:05.891Z,17.40
2022-10-05T08:50:58.959Z,17.50
2022-10-05T08:53:51.460Z,17.60
2022-10-05T08:56:37.862Z,17.80
2022-10-05T08:59:33.719Z,17.90
2022-10-05T09:02:19.043Z,17.90
2022-10-05T09:05:11.705Z,18.00
2022-10-05T09:08:06.594Z,18.10
2022-10-05T09:11:07.049Z,18.30
2022-10-05T09:14:02.970Z,18.20
2022-10-05T09:16:45.676Z,18.30
2022-10-05T09:19:52.491Z,18.30
2022-10-05T09:22:46.134Z,18.30
2022-10-05T09:25:24.562Z,18.50
2022-10-05T09:28:00.279Z,18.70
2022-10-05T09:30:49.455Z,18.90
2022-10-05T09:34:05.327Z,18.70
2022-10-05T09:37:02.138Z,18.70
2022-10-05T09:40:15.790Z,18.80
2022-10-05T09:43:11.941Z,19.00
2022-10-05T09:46:10.489Z,19.10
2022-10-05T09:49:21.215Z,19.00
2022-10-05T09:52:19.365Z,18.80
2022-10-05T09:55:21.652Z,18.90
2022-10-05T09:58:16.676Z,18.90
2022-10-05T10:01:09.129Z,18.90
2022-10-05T10:04:18.492Z,18.80
2022-10-05T10:07:17.770Z,19.00
2022-10-05T10:10:01.916Z,19.40
2022-10-05T10:12:38.123Z,19.40
2022-10-05T10:15:35.533Z,19.60
2022-10-05T10:18:30.818Z,19.80
2022-10-05T10:21:30.117Z,19.80
2022-10-05T10:24:14.796Z,19.80
2022-10-05T10:27:05.660Z,19.90
2022-10-05T10:29:59.281Z,19.90
2022-10-05T10:33:19.842Z,20.00
2022-10-05T10:35:56.222Z,20.00
2022-10-05T10:38:33.798Z,20.00
2022-10-05T10:41:45.515Z,20.20
2022-10-05T10:44:58.958Z,20.20
2022-10-05T10:47:44.450Z,20.10
2022-10-05T10:58:15.076Z,19.80
2022-10-05T11:00:52.146Z,19.70
2022-10-05T11:03:56.546Z,19.90
2022-10-05T11:06:40.872Z,20.00
2022-10-05T11:09:30.866Z,20.00
2022-10-05T11:12:36.549Z,19.90
2022-10-05T11:15:30.935Z,19.90
2022-10-05T11:18:10.078Z,19.90
2022-10-05T11:21:23.119Z,19.80
2022-10-05T11:24:26.139Z,19.70
2022-10-05T11:27:13.092Z,19.80
2022-10-05T11:30:09.716Z,19.90
2022-10-05T11:33:12.637Z,19.90
2022-10-05T11:35:57.297Z,20.00
2022-10-05T11:39:04.789Z,20.00
2022-10-05T11:42:03.391Z,20.00
2022-10-05T11:45:14.157Z,20.00
2022-10-05T11:47:58.234Z,20.10
2022-10-05T11:50:38.531Z,20.00
2022-10-05T11:53:15.083Z,20.10
2022-10-05T11:55:47.980Z,20.10
2022-10-05T11:58:20.729Z,20.10
2022-10-05T12:00:55.009Z,20.00
2022-10-05T12:03:45.616Z,19.90
2022-10-05T12:06:26.425Z,19.90
2022-10-05T12:09:06.846Z,20.10
2022-10-05T12:11:57.688Z,20.20
2022-10-05T12:14:37.255Z,20.30
2022-10-05T12:17:17.956Z,20.30
2022-10-05T12:19:50.890Z,20.30
2022-10-05T12:22:22.854Z,20.50
2022-10-05T12:25:12.809Z,20.50
2022-10-05T12:27:44.062Z,20.60
2022-10-05T12:30:16.666Z,20.50
2022-10-05T12:33:00.901Z,20.50
2022-10-05T12:35:50.173Z,20.60
2022-10-05T12:38:27.055Z,20.60
2022-10-05T12:41:05.174Z,20.60
2022-10-05T12:43:41.823Z,20.70
2022-10-05T12:46:21.137Z,20.80
2022-10-05T12:49:03.450Z,20.80
2022-10-05T12:51:41.629Z,20.90
2022-10-05T12:54:18.007Z,20.90
2022-10-05T12:56:54.408Z,20.90
2022-10-05T12:59:35.392Z,20.90
2022-10-05T13:02:15.631Z,21.10
2022-10-05T13:04:50.544Z,21.10
2022-10-05T13:07:40.384Z,21.10
2022-10-05T13:10:22.623Z,21.20
2022-10-05T13:12:58.958Z,21.30
2022-10-05T13:27:55.264Z,21.20
2022-10-05T13:30:24.747Z,21.10
2022-10-05T13:32:58.603Z,21.10
2022-10-05T13:35:40.300Z,21.10
2022-10-05T13:38:31.120Z,21.30
2022-10-05T13:41:11.616Z,21.30
2022-10-05T13:43:45.063Z,21.40
2022-10-05T13:46:23.836Z,21.50
2022-10-05T13:49:05.633Z,21.60
2022-10-05T13:51:45.807Z,21.60
2022-10-05T13:54:20.026Z,21.60
2022-10-05T13:56:54.240Z,21.50
2022-10-05T13:59:30.902Z,21.60
2022-10-05T14:02:05.293Z,21.60
2022-10-05T14:04:45.574Z,21.50
2022-10-05T14:07:30.868Z,21.50
2022-10-05T14:09:59.902Z,21.50
2022-10-05T14:12:29.427Z,21.30
2022-10-05T14:14:59.439Z,21.30
2022-10-05T14:17:39.300Z,21.20
2022-10-05T14:20:24.898Z,21.20
2022-10-05T14:22:57.310Z,21.30
2022-10-05T14:25:25.933Z,21.30
2022-10-05T14:28:00.258Z,21.20
2022-10-05T14:30:30.424Z,21.30
2022-10-05T14:33:15.478Z,21.30
2022-10-05T14:35:50.312Z,21.20
2022-10-05T14:38:21.554Z,21.10
2022-10-05T14:41:05.240Z,21.10
2022-10-05T14:43:35.316Z,21.10
2022-10-05T14:46:23.402Z,21.10
2022-10-05T14:49:15.720Z,21.00
2022-10-05T14:51:43.826Z,20.90
2022-10-05T14:54:27.428Z,20.80
2022-10-05T14:57:05.294Z,20.70
2022-10-05T14:59:59.993Z,20.70
2022-10-05T15:02:53.703Z,20.60
2022-10-05T15:05:31.384Z,20.60
2022-10-05T15:08:09.971Z,20.50
2022-10-05T15:10:43.552Z,20.50
2022-10-05T15:13:16.732Z,20.60
2022-10-05T15:15:51.992Z,20.40
2022-10-05T15:18:34.988Z,20.40
2022-10-05T15:21:23.762Z,20.30
2022-10-05T15:23:55.293Z,20.30
2022-10-05T15:26:36.228Z,20.20
2022-10-05T15:29:19.566Z,20.10
2022-10-05T15:31:56.550Z,20.00
2022-10-05T15:34:31.522Z,20.00
2022-10-05T15:37:07.254Z,19.80
2022-10-05T15:39:43.353Z,19.60
2022-10-05T15:42:14.682Z,19.50
2022-10-05T15:44:59.747Z,19.50
2022-10-05T15:47:39.050Z,19.50
2022-10-05T15:50:17.665Z,19.40
2022-10-05T15:52:52.163Z,19.40
2022-10-05T15:55:39.646Z,19.20
2022-10-05T15:58:38.708Z,19.00
2022-10-05T16:01:11.491Z,18.90
2022-10-05T16:03:50.027Z,18.90
2022-10-05T16:06:49.707Z,18.70
2022-10-05T16:09:37.126Z,18.60
2022-10-05T16:12:16.305Z,18.50
2022-10-05T16:14:54.564Z,18.50
2022-10-05T16:17:35.520Z,18.40
2022-10-05T16:20:26.462Z,18.30
2022-10-05T16:23:02.559Z,18.30
2022-10-05T16:25:44.069Z,18.20
2022-10-05T16:28:23.749Z,18.20
2022-10-05T16:30:59.728Z,18.10
2022-10-05T16:33:38.380Z,18.10
2022-10-05T16:36:18.140Z,18.10
2022-10-05T16:38:53.156Z,18.10
2022-10-05T16:41:29.641Z,18.10
2022-10-05T16:44:06.735Z,18.00
2022-10-05T16:46:40.952Z,17.90
2022-10-05T16:49:24.880Z,17.90
2022-10-05T16:51:59.073Z,18.00
2022-10-05T16:54:31.673Z,17.90
2022-10-05T16:57:07.126Z,17.90
2022-10-05T17:00:08.881Z,17.90
2022-10-05T17:02:54.091Z,17.90
2022-10-05T17:05:55.917Z,17.90
2022-10-05T17:08:50.357Z,17.90
2022-10-05T17:11:29.582Z,17.90
2022-10-05T17:14:23.437Z,17.90
2022-10-05T17:17:04.706Z,17.80
2022-10-05T17:19:46.661Z,17.80
2022-10-05T17:22:25.002Z,17.80
2022-10-05T17:25:00.483Z,17.70
2022-10-05T17:27:35.584Z,17.70
2022-10-05T17:30:48.456Z,17.80
2022-10-05T17:33:24.889Z,17.80
2022-10-05T17:39:51.873Z,17.80
2022-10-05T17:42:49.252Z,17.80
2022-10-05T17:45:54.879Z,17.80
2022-10-05T17:49:07.779Z,17.80
2022-10-05T17:52:16.973Z,17.80
2022-10-05T17:55:30.586Z,17.80
2022-10-05T17:58:01.084Z,17.80
2022-10-05T18:00:40.316Z,17.70
2022-10-05T18:03:37.809Z,17.80
2022-10-05T18:06:39.335Z,17.80
2022-10-05T18:09:21.804Z,17.80
2022-10-05T18:12:24.811Z,17.80
2022-10-05T18:15:00.463Z,17.80
2022-10-05T18:17:39.918Z,17.90
2022-10-05T18:20:31.410Z,17.90
2022-10-05T18:23:35.500Z,17.80
2022-10-05T18:26:09.169Z,17.80
2022-10-05T18:28:51.154Z,17.90
2022-10-05T18:31:29.110Z,17.90
2022-10-05T18:34:11.251Z,17.90
2022-10-05T18:36:56.044Z,17.90
2022-10-05T18:39:46.601Z,17.90
2022-10-05T18:42:27.190Z,17.90
2022-10-05T18:44:59.158Z,17.90
2022-10-05T18:47:34.630Z,17.90
2022-10-05T18:50:13.259Z,17.90
2022-10-05T18:52:58.166Z,17.90
2022-10-05T18:55:33.724Z,17.90
2022-10-05T18:58:12.056Z,17.90
2022-10-05T19:01:04.607Z,17.90
2022-10-05T19:03:41.484Z,18.00
2022-10-05T19:06:18.340Z,17.90
2022-10-05T19:09:01.333Z,17.90
2022-10-05T19:11:37.474Z,17.90
2022-10-05T19:14:18.367Z,17.90
2022-10-05T19:17:03.839Z,17.90
2022-10-05T19:20:04.109Z,17.90
2022-10-05T19:22:45.956Z,17.90
2022-10-05T19:25:29.816Z,18.00
2022-10-05T19:28:07.212Z,18.00
2022-10-05T19:30:49.630Z,18.00
2022-10-05T19:33:35.824Z,18.00
2022-10-05T19:36:19.610Z,18.00
2022-10-05T19:39:00.108Z,18.00
2022-10-05T19:41:39.062Z,18.00
2022-10-05T19:44:19.248Z,17.90
2022-10-05T19:46:59.822Z,17.90
2022-10-05T19:49:44.842Z,17.80
2022-10-05T19:52:21.190Z,17.80
2022-10-05T19:55:02.059Z,17.80
2022-10-05T19:57:32.736Z,17.80
2022-10-05T20:00:01.208Z,17.70
2022-10-05T20:02:29.357Z,17.70
2022-10-05T20:05:07.791Z,17.70
2022-10-05T20:07:36.270Z,17.70
2022-10-05T20:10:29.047Z,17.70
2022-10-05T20:13:00.150Z,17.70
2022-10-05T20:15:46.972Z,17.70
2022-10-05T20:18:58.938Z,17.60
2022-10-05T20:21:48.360Z,17.60
2022-10-05T20:24:18.934Z,17.50
2022-10-05T20:27:16.071Z,17.40
2022-10-05T20:29:47.074Z,17.40
2022-10-05T20:32:17.972Z,17.50
2022-10-05T20:34:47.930Z,17.50
2022-10-05T20:37:17.932Z,17.50
2022-10-05T20:39:47.321Z,17.50
2022-10-05T20:42:15.693Z,17.50
2022-10-05T20:44:45.528Z,17.50
2022-10-05T20:47:14.601Z,17.50
2022-10-05T20:49:42.656Z,17.50
2022-10-05T20:52:12.192Z,17.50
2022-10-05T20:54:40.618Z,17.40
2022-10-05T20:57:10.146Z,17.50
2022-10-05T20:59:38.379Z,17.40
2022-10-05T21:02:07.932Z,17.40
2022-10-05T21:04:40.646Z,17.40
2022-10-05T21:07:09.535Z,17.30
2022-10-05T21:09:39.233Z,16.90
2022-10-05T21:12:07.677Z,16.70
2022-10-05T21:14:36.636Z,16.40
2022-10-05T21:17:05.235Z,16.00
2022-10-05T21:19:38.403Z,15.70
2022-10-05T21:22:08.349Z,15.30
2022-10-05T21:24:37.130Z,15.00
2022-10-05T21:27:06.001Z,14.70
2022-10-05T21:29:35.324Z,14.50
2022-10-05T21:32:03.458Z,14.40
2022-10-05T21:34:31.580Z,14.30
2022-10-05T21:37:01.016Z,14.20
2022-10-05T21:39:29.102Z,14.10
2022-10-05T21:41:57.197Z,14.10
2022-10-05T21:44:25.369Z,14.10
2022-10-05T21:46:53.677Z,14.10
2022-10-05T21:49:21.826Z,14.10
2022-10-05T21:51:49.949Z,14.00
2022-10-05T21:54:22.334Z,14.00
2022-10-05T21:56:53.577Z,14.00
2022-10-05T21:59:25.132Z,14.10
2022-10-05T22:01:53.209Z,14.00
2022-10-05T22:04:21.243Z,14.00
2022-10-05T22:06:49.442Z,14.10
2022-10-05T22:09:18.879Z,14.10
2022-10-05T22:11:48.420Z,14.10
2022-10-05T22:14:17.179Z,14.10
2022-10-05T22:16:45.729Z,14.10
2022-10-05T22:19:17.603Z,14.10
2022-10-05T22:21:45.700Z,14.10
2022-10-05T22:24:13.820Z,14.10
2022-10-05T22:26:47.384Z,14.20
2022-10-05T22:29:17.015Z,14.20
2022-10-05T22:31:48.442Z,14.20
2022-10-05T22:34:16.634Z,14.20
2022-10-05T22:36:45.872Z,14.20
2022-10-05T22:39:14.013Z,14.20
2022-10-05T22:41:43.620Z,14.10
2022-10-05T22:44:11.669Z,14.10
2022-10-05T22:46:39.759Z,14.10
2022-10-05T22:49:07.797Z,14.00
2022-10-05T22:51:35.885Z,14.00
2022-10-05T22:54:03.947Z,13.90
2022-10-05T22:56:31.985Z,13.80
2022-10-05T22:59:01.436Z,13.80
2022-10-05T23:01:29.581Z,13.80
2022-10-05T23:03:57.774Z,13.70
2022-10-05T23:06:26.652Z,13.70
2022-10-05T23:08:55.464Z,13.80
2022-10-05T23:11:25.970Z,13.80
2022-10-05T23:13:55.781Z,13.80
2022-10-05T23:27:58.923Z,13.60
2022-10-05T23:30:27.131Z,13.60
2022-10-05T23:32:55.243Z,13.60
2022-10-05T23:35:23.331Z,13.50
2022-10-05T23:37:51.360Z,13.50
2022-10-05T23:40:19.449Z,13.40
2022-10-05T23:42:47.726Z,13.40
2022-10-05T23:45:17.230Z,13.50
2022-10-05T23:47:45.325Z,13.50
2022-10-05T23:50:13.484Z,13.50
2022-10-05T23:52:41.540Z,13.50
2022-10-05T23:55:10.288Z,13.40
2022-10-05T23:57:38.334Z,13.40
